createdAt,value
2022-08-09T00:00:06.032Z,3.47
2022-08-09T00:04:00.656Z,2.83
2022-08-09T00:06:37.860Z,2.95
2022-08-09T00:09:44.678Z,3.45
2022-08-09T00:12:52.336Z,2.78
2022-08-09T00:15:58.864Z,3.05
2022-08-09T00:19:09.334Z,3.17
2022-08-09T00:22:13.334Z,3.97
2022-08-09T00:25:23.432Z,6.45
2022-08-09T00:28:37.140Z,4.15
2022-08-09T00:31:57.328Z,4.20
2022-08-09T00:35:01.714Z,3.35
2022-08-09T00:38:06.606Z,4.60
2022-08-09T00:41:09.468Z,3.67
2022-08-09T00:44:32.787Z,4.35
2022-08-09T00:47:40.469Z,4.00
2022-08-09T00:50:44.288Z,3.10
2022-08-09T00:53:51.958Z,3.90
2022-08-09T00:56:57.756Z,3.22
2022-08-09T01:00:02.988Z,4.10
2022-08-09T01:03:28.508Z,3.58
2022-08-09T01:06:54.512Z,5.80
2022-08-09T01:10:36.492Z,3.22
2022-08-09T01:13:59.103Z,4.28
2022-08-09T01:17:17.861Z,3.85
2022-08-09T01:20:42.864Z,3.28
2022-08-09T01:24:01.810Z,3.37
2022-08-09T01:27:08.811Z,5.22
2022-08-09T01:30:28.682Z,4.40
2022-08-09T01:33:43.272Z,3.47
2022-08-09T01:36:50.235Z,2.78
2022-08-09T01:39:55.029Z,4.47
2022-08-09T01:43:01.197Z,5.68
2022-08-09T01:46:05.223Z,4.95
2022-08-09T01:49:12.884Z,4.47
2022-08-09T01:52:23.096Z,4.93
2022-08-09T01:55:30.247Z,2.80
2022-08-09T01:58:39.214Z,5.30
2022-08-09T02:01:58.447Z,4.32
2022-08-09T02:05:15.722Z,4.12
2022-08-09T02:08:41.354Z,4.78
2022-08-09T02:11:48.279Z,4.68
2022-08-09T02:14:53.004Z,3.72
2022-08-09T02:18:10.183Z,4.78
2022-08-09T02:21:22.127Z,7.60
2022-08-09T02:24:32.675Z,5.65
2022-08-09T02:27:57.409Z,4.10
2022-08-09T02:31:06.194Z,3.67
2022-08-09T02:34:40.222Z,3.25
2022-08-09T02:37:40.280Z,2.25
2022-08-09T02:40:53.814Z,2.72
2022-08-09T02:44:10.389Z,4.55
2022-08-09T02:50:42.166Z,3.20
2022-08-09T02:53:52.930Z,3.05
2022-08-09T02:57:13.662Z,3.25
2022-08-09T03:00:30.200Z,3.25
2022-08-09T03:04:16.710Z,3.37
2022-08-09T03:07:24.756Z,2.83
2022-08-09T03:10:35.087Z,3.10
2022-08-09T03:13:59.283Z,3.22
2022-08-09T03:17:16.435Z,3.70
2022-08-09T03:20:30.036Z,3.20
2022-08-09T03:23:33.002Z,4.12
2022-08-09T03:26:44.946Z,2.65
2022-08-09T03:29:57.595Z,5.40
2022-08-09T03:33:18.715Z,2.58
2022-08-09T03:36:27.709Z,3.37
2022-08-09T03:39:38.076Z,4.50
2022-08-09T03:42:42.884Z,2.35
2022-08-09T03:46:03.831Z,3.75
2022-08-09T03:49:17.412Z,2.78
2022-08-09T03:52:22.792Z,4.62
2022-08-09T03:55:36.279Z,4.87
2022-08-09T03:58:50.374Z,4.35
2022-08-09T04:01:59.136Z,4.55
2022-08-09T04:08:29.799Z,5.78
2022-08-09T04:12:03.463Z,4.18
2022-08-09T04:15:11.666Z,3.92
2022-08-09T04:18:32.344Z,5.18
2022-08-09T04:21:36.377Z,3.58
2022-08-09T04:24:44.395Z,3.30
2022-08-09T04:27:49.043Z,4.20
2022-08-09T04:30:52.990Z,4.35
2022-08-09T04:33:57.128Z,3.70
2022-08-09T04:37:02.608Z,3.58
2022-08-09T04:40:09.166Z,3.03
2022-08-09T04:43:15.753Z,3.78
2022-08-09T04:46:37.306Z,3.55
2022-08-09T04:49:54.269Z,3.85
2022-08-09T04:52:57.849Z,3.58
2022-08-09T04:56:06.305Z,4.53
2022-08-09T04:59:15.318Z,3.50
2022-08-09T05:02:22.265Z,4.22
2022-08-09T05:05:32.279Z,3.42
2022-08-09T05:08:48.985Z,4.30
2022-08-09T05:11:51.578Z,4.97
2022-08-09T05:14:55.625Z,5.05
2022-08-09T05:18:37.771Z,4.97
2022-08-09T05:21:29.917Z,5.10
2022-08-09T05:24:33.423Z,2.78
2022-08-09T05:27:45.362Z,3.90
2022-08-09T05:30:51.541Z,4.20
2022-08-09T05:33:57.053Z,3.07
2022-08-09T05:37:05.009Z,4.60
2022-08-09T05:40:13.401Z,3.50
2022-08-09T05:43:15.966Z,3.22
2022-08-09T05:46:19.880Z,3.37
2022-08-09T05:50:19.558Z,4.45
2022-08-09T05:52:53.409Z,3.65
2022-08-09T05:55:56.690Z,4.15
2022-08-09T05:58:59.564Z,3.70
2022-08-09T06:02:02.530Z,4.53
2022-08-09T06:05:07.135Z,4.18
2022-08-09T06:08:13.576Z,5.53
2022-08-09T06:11:40.607Z,6.68
2022-08-09T06:14:42.216Z,4.65
2022-08-09T06:17:45.116Z,4.07
2022-08-09T06:20:57.919Z,3.83
2022-08-09T06:24:03.966Z,5.15
2022-08-09T06:27:07.313Z,3.83
2022-08-09T06:30:14.207Z,5.93
2022-08-09T06:33:39.660Z,4.78
2022-08-09T06:36:33.748Z,3.92
2022-08-09T06:39:48.707Z,4.22
2022-08-09T06:42:51.467Z,5.53
2022-08-09T06:46:07.284Z,4.47
2022-08-09T06:49:11.693Z,5.43
2022-08-09T06:52:28.021Z,5.90
2022-08-09T06:55:33.433Z,4.85
2022-08-09T07:00:46.509Z,4.35
2022-08-09T07:02:03.540Z,5.00
2022-08-09T07:05:09.407Z,5.30
2022-08-09T07:08:13.924Z,3.60
2022-08-09T07:11:23.726Z,2.70
2022-08-09T07:14:36.069Z,4.43
2022-08-09T07:17:56.096Z,3.12
2022-08-09T07:20:57.048Z,3.58
2022-08-09T07:24:01.497Z,3.22
2022-08-09T07:27:26.214Z,3.58
2022-08-09T07:30:34.382Z,7.70
2022-08-09T07:33:52.457Z,3.40
2022-08-09T07:36:55.587Z,3.60
2022-08-09T07:40:16.968Z,3.53
2022-08-09T07:43:56.083Z,3.03
2022-08-09T07:50:08.561Z,3.60
2022-08-09T07:53:16.758Z,3.60
2022-08-09T07:56:34.116Z,4.10
2022-08-09T07:59:51.015Z,3.20
2022-08-09T08:02:51.382Z,4.25
2022-08-09T08:05:57.633Z,3.45
2022-08-09T08:09:07.709Z,4.75
2022-08-09T08:12:27.657Z,2.83
2022-08-09T08:15:35.553Z,4.95
2022-08-09T08:18:40.911Z,5.28
2022-08-09T08:21:52.874Z,4.40
2022-08-09T08:24:57.532Z,2.85
2022-08-09T08:31:13.741Z,3.10
2022-08-09T08:34:25.345Z,4.20
2022-08-09T08:37:41.356Z,2.75
2022-08-09T08:40:45.136Z,2.50
2022-08-09T08:43:53.315Z,3.85
2022-08-09T08:47:04.485Z,3.33
2022-08-09T08:50:18.161Z,2.95
2022-08-09T08:59:46.740Z,2.90
2022-08-09T09:02:53.556Z,2.53
2022-08-09T09:06:04.791Z,4.20
2022-08-09T09:09:21.350Z,3.17
2022-08-09T09:12:36.252Z,4.55
2022-08-09T09:15:40.225Z,3.13
2022-08-09T09:22:28.582Z,3.20
2022-08-09T09:26:03.591Z,2.17
2022-08-09T09:29:04.378Z,2.95
2022-08-09T09:32:34.425Z,2.97
2022-08-09T09:36:01.864Z,2.80
2022-08-09T09:39:11.828Z,2.35
2022-08-09T09:42:27.738Z,2.65
2022-08-09T09:45:57.616Z,5.07
2022-08-09T09:49:18.803Z,3.03
2022-08-09T09:52:37.189Z,2.40
2022-08-09T09:56:05.247Z,2.30
2022-08-09T10:02:56.671Z,4.53
2022-08-09T10:06:52.179Z,2.78
2022-08-09T10:10:31.711Z,2.83
2022-08-09T10:13:59.425Z,2.87
2022-08-09T10:17:56.312Z,3.03
2022-08-09T10:21:16.574Z,3.20
2022-08-09T10:24:31.413Z,2.00
2022-08-09T10:27:57.834Z,4.25
2022-08-09T10:34:59.640Z,2.35
2022-08-09T10:38:05.757Z,2.10
2022-08-09T10:41:40.771Z,3.03
2022-08-09T10:44:52.317Z,2.08
2022-08-09T10:52:20.280Z,2.12
2022-08-09T10:59:30.675Z,1.92
2022-08-09T11:06:25.425Z,1.70
2022-08-09T11:09:48.172Z,1.95
2022-08-09T11:13:51.063Z,3.40
2022-08-09T11:16:47.158Z,2.55
2022-08-09T11:20:22.196Z,2.65
2022-08-09T11:23:30.225Z,2.37
2022-08-09T11:26:40.818Z,2.28
2022-08-09T11:30:04.039Z,2.60
2022-08-09T11:33:19.332Z,2.33
2022-08-09T11:36:35.469Z,2.35
2022-08-09T11:40:06.015Z,2.45
2022-08-09T11:43:09.016Z,2.30
2022-08-09T11:46:26.580Z,2.62
2022-08-09T11:50:53.801Z,2.40
2022-08-09T11:54:01.123Z,3.87
2022-08-09T11:57:47.865Z,3.05
2022-08-09T12:01:37.575Z,3.20
2022-08-09T12:04:32.194Z,2.25
2022-08-09T12:07:44.436Z,2.40
2022-08-09T12:10:59.259Z,3.25
2022-08-09T12:14:36.800Z,2.87
2022-08-09T12:17:51.945Z,2.37
2022-08-09T12:21:02.546Z,2.42
2022-08-09T12:24:10.167Z,2.30
2022-08-09T12:31:30.803Z,3.05
2022-08-09T12:34:43.230Z,3.53
2022-08-09T12:37:51.863Z,4.03
2022-08-09T12:41:07.458Z,3.78
2022-08-09T12:44:13.261Z,2.33
2022-08-09T12:47:17.612Z,3.10
2022-08-09T12:50:28.637Z,2.33
2022-08-09T12:53:41.008Z,4.05
2022-08-09T12:56:54.422Z,2.55
2022-08-09T13:00:18.503Z,2.50
2022-08-09T13:03:57.366Z,2.53
2022-08-09T13:07:16.492Z,2.58
2022-08-09T13:10:20.191Z,2.22
2022-08-09T13:14:40.760Z,3.15
2022-08-09T13:17:14.216Z,4.00
2022-08-09T13:20:37.924Z,3.67
2022-08-09T13:24:44.465Z,3.55
2022-08-09T13:27:39.937Z,2.33
2022-08-09T13:42:13.707Z,3.37
2022-08-09T13:45:21.848Z,2.83
2022-08-09T13:49:03.162Z,2.37
2022-08-09T13:52:10.835Z,4.45
2022-08-09T13:55:23.633Z,3.47
2022-08-09T13:58:27.874Z,3.12
2022-08-09T14:02:00.502Z,2.62
2022-08-09T14:05:01.105Z,2.67
2022-08-09T14:08:07.087Z,3.78
2022-08-09T14:11:16.331Z,3.10
2022-08-09T14:14:25.727Z,2.28
2022-08-09T14:21:32.343Z,2.40
2022-08-09T14:24:39.699Z,3.60
2022-08-09T14:28:04.611Z,2.55
2022-08-09T14:31:20.425Z,3.28
2022-08-09T14:34:31.004Z,2.55
2022-08-09T14:38:02.181Z,3.63
2022-08-09T14:41:35.233Z,2.80
2022-08-09T14:44:59.245Z,3.42
2022-08-09T14:48:15.256Z,2.95
2022-08-09T14:51:23.236Z,4.35
2022-08-09T14:54:28.560Z,2.97
2022-08-09T14:57:43.254Z,2.10
2022-08-09T15:00:51.931Z,3.28
2022-08-09T15:03:58.572Z,2.95
2022-08-09T15:07:06.127Z,2.62
2022-08-09T15:10:28.507Z,2.50
2022-08-09T15:13:48.424Z,2.30
2022-08-09T15:16:57.402Z,3.33
2022-08-09T15:20:03.497Z,3.47
2022-08-09T15:24:01.377Z,2.20
2022-08-09T15:30:59.229Z,2.35
2022-08-09T15:33:07.516Z,3.65
2022-08-09T15:36:14.532Z,2.40
2022-08-09T15:39:20.851Z,2.35
2022-08-09T15:45:29.525Z,2.72
2022-08-09T15:48:33.129Z,2.63
2022-08-09T15:52:13.067Z,2.58
2022-08-09T15:55:20.051Z,3.40
2022-08-09T15:58:26.757Z,3.08
2022-08-09T16:01:31.337Z,2.50
2022-08-09T16:04:39.053Z,3.10
2022-08-09T16:07:49.245Z,2.83
2022-08-09T16:10:56.999Z,2.40
2022-08-09T16:14:03.052Z,4.55
2022-08-09T16:17:10.237Z,2.50
2022-08-09T16:20:13.073Z,3.00
2022-08-09T16:23:19.805Z,5.05
2022-08-09T16:26:33.803Z,2.17
2022-08-09T16:29:49.911Z,4.72
2022-08-09T16:33:10.242Z,1.92
2022-08-09T16:36:18.790Z,2.72
2022-08-09T16:39:21.461Z,2.08
2022-08-09T16:42:31.066Z,2.80
2022-08-09T16:45:33.604Z,3.87
2022-08-09T16:48:58.321Z,2.50
2022-08-09T16:51:55.449Z,2.70
2022-08-09T16:54:59.650Z,3.85
2022-08-09T16:58:09.240Z,2.42
2022-08-09T17:01:14.253Z,2.22
2022-08-09T17:04:25.829Z,4.25
2022-08-09T17:08:44.644Z,2.42
2022-08-09T17:10:49.765Z,2.35
2022-08-09T17:14:00.899Z,2.85
2022-08-09T17:17:12.742Z,3.95
2022-08-09T17:20:29.670Z,2.08
2022-08-09T17:24:20.035Z,2.97
2022-08-09T17:27:02.309Z,3.08
2022-08-09T17:30:14.556Z,3.70
2022-08-09T17:33:22.750Z,3.62
2022-08-09T17:36:25.972Z,2.47
2022-08-09T17:39:48.626Z,2.22
2022-08-09T17:42:55.543Z,3.42
2022-08-09T17:46:06.384Z,2.80
2022-08-09T17:49:10.060Z,2.95
2022-08-09T17:52:22.310Z,4.05
2022-08-09T17:55:47.103Z,2.65
2022-08-09T17:58:50.852Z,2.12
2022-08-09T18:02:07.646Z,3.83
2022-08-09T18:05:16.631Z,3.37
2022-08-09T18:08:19.498Z,3.08
2022-08-09T18:14:31.405Z,3.45
2022-08-09T18:18:03.395Z,3.15
2022-08-09T18:21:18.792Z,2.65
2022-08-09T18:24:27.375Z,4.85
2022-08-09T18:30:56.275Z,2.55
2022-08-09T18:37:10.495Z,5.55
2022-08-09T18:40:30.353Z,2.50
2022-08-09T18:43:34.961Z,2.00
2022-08-09T18:46:49.152Z,4.93
2022-08-09T18:50:06.184Z,1.98
2022-08-09T18:53:13.408Z,3.08
2022-08-09T18:56:16.540Z,1.15
2022-08-09T18:59:20.075Z,1.95
2022-08-09T19:02:24.064Z,1.00
2022-08-09T19:06:02.093Z,3.10
2022-08-09T19:09:04.315Z,2.85
2022-08-09T19:12:09.214Z,2.40
2022-08-09T19:15:15.504Z,1.50
2022-08-09T19:18:33.466Z,0.90
2022-08-09T19:21:51.687Z,0.93
2022-08-09T19:25:41.798Z,2.05
2022-08-09T19:28:34.947Z,2.75
2022-08-09T19:31:44.328Z,1.12
2022-08-09T19:34:49.770Z,0.70
2022-08-09T19:37:57.885Z,1.40
2022-08-09T19:41:02.237Z,3.08
2022-08-09T19:44:06.379Z,1.03
2022-08-09T19:47:09.367Z,1.52
2022-08-09T19:53:53.202Z,0.68
2022-08-09T19:57:27.516Z,1.10
2022-08-09T20:00:54.080Z,2.10
2022-08-09T20:04:40.461Z,1.05
2022-08-09T20:08:07.663Z,0.80
2022-08-09T20:11:53.276Z,1.67
2022-08-09T20:16:35.234Z,1.08
2022-08-09T20:22:24.334Z,1.02
2022-08-09T20:26:00.672Z,1.08
2022-08-09T20:29:37.493Z,1.25
2022-08-09T20:33:18.392Z,1.05
2022-08-09T20:36:44.844Z,1.23
2022-08-09T20:40:26.795Z,1.37
2022-08-09T20:43:59.706Z,0.60
2022-08-09T20:47:47.867Z,0.88
2022-08-09T20:51:02.957Z,1.20
2022-08-09T20:54:39.000Z,1.20
2022-08-09T20:58:32.292Z,2.03
2022-08-09T21:02:06.441Z,0.80
2022-08-09T21:05:54.124Z,1.50
2022-08-09T21:09:11.861Z,0.80
2022-08-09T21:16:30.348Z,1.60
2022-08-09T21:20:19.651Z,0.80
2022-08-09T21:23:55.577Z,2.20
2022-08-09T21:27:51.110Z,0.82
2022-08-09T21:31:23.145Z,0.80
2022-08-09T21:35:07.049Z,1.00
2022-08-09T21:38:34.374Z,0.80
2022-08-09T21:42:14.130Z,0.85
2022-08-09T21:45:49.129Z,2.85
2022-08-09T21:49:18.584Z,1.20
2022-08-09T21:53:04.224Z,0.73
2022-08-09T21:56:15.095Z,0.93
2022-08-09T21:59:45.331Z,1.50
2022-08-09T22:03:19.597Z,1.08
2022-08-09T22:06:55.360Z,1.15
2022-08-09T22:10:30.161Z,1.08
2022-08-09T22:14:06.276Z,1.50
2022-08-09T22:17:51.405Z,1.50
2022-08-09T22:21:45.395Z,0.88
2022-08-09T22:26:05.500Z,1.80
2022-08-09T22:28:55.773Z,2.12
2022-08-09T22:32:31.635Z,1.87
2022-08-09T22:36:06.629Z,1.27
2022-08-09T22:39:56.305Z,0.62
2022-08-09T22:43:01.265Z,0.85
2022-08-09T22:48:10.516Z,0.88
2022-08-09T22:50:26.381Z,1.62
2022-08-09T22:54:03.528Z,1.33
2022-08-09T22:57:31.621Z,0.70
2022-08-09T23:01:11.837Z,0.75
2022-08-09T23:04:40.613Z,1.17
2022-08-09T23:08:30.119Z,1.25
2022-08-09T23:12:02.877Z,0.73
2022-08-09T23:16:02.652Z,1.60
2022-08-09T23:19:15.128Z,0.70
2022-08-09T23:22:43.399Z,1.02
2022-08-09T23:30:00.621Z,0.88
2022-08-09T23:33:28.646Z,0.70
2022-08-09T23:37:07.945Z,0.70
2022-08-09T23:40:36.692Z,1.10
2022-08-09T23:44:16.278Z,0.82
2022-08-09T23:47:57.071Z,0.88
2022-08-09T23:51:28.492Z,0.90
2022-08-09T23:54:57.488Z,1.52
2022-08-09T23:58:29.751Z,1.75
